Time;durP1;ratioP1;P1;durP2;ratioP2;P2;SDS_P1;SDS_P2;PMS_P1;PMS_P2;Temp;Humidity;BMP_temperature;BMP_pressure;BME280_temperature;BME280_humidity;BME280_pressure;Samples;Min_cycle;Max_cycle;Signal;HPM_P1;HPM_P2
2021/05/20 00:00:53;;;;;;;1.33;0.83;;;;;;;10.53;76.01;96540.72;5039899;28;20453;-87
2021/05/20 00:03:19;;;;;;;1.83;0.90;;;;;;;10.43;77.10;96531.69;5039007;28;20430;-88
2021/05/20 00:05:45;;;;;;;1.20;1.03;;;;;;;10.50;76.64;96541.06;5040608;28;20436;-87
2021/05/20 00:08:11;;;;;;;1.23;0.87;;;;;;;10.53;76.96;96540.00;5039019;28;20519;-87
2021/05/20 00:10:38;;;;;;;1.77;0.70;;;;;;;10.51;76.98;96540.53;5039817;28;20530;-87
2021/05/20 00:13:04;;;;;;;1.23;1.03;;;;;;;10.49;76.87;96539.63;5039389;28;20444;-89
2021/05/20 00:15:31;;;;;;;1.50;1.10;;;;;;;10.42;77.55;96543.03;5038690;28;21049;-89
2021/05/20 00:17:57;;;;;;;1.60;0.80;;;;;;;10.43;77.77;96544.47;5039611;28;20535;-87
2021/05/20 00:20:23;;;;;;;2.10;1.00;;;;;;;10.48;77.55;96543.59;5039477;28;20557;-88
2021/05/20 00:22:49;;;;;;;1.40;0.80;;;;;;;10.45;77.52;96541.94;5039194;28;20530;-87
2021/05/20 00:25:15;;;;;;;5.90;0.97;;;;;;;10.41;78.24;96545.00;5039474;28;20431;-89
2021/05/20 00:27:42;;;;;;;1.70;0.83;;;;;;;10.44;78.46;96543.91;5038695;28;20609;-87
2021/05/20 00:30:10;;;;;;;4.83;1.93;;;;;;;10.45;77.74;96550.78;5038698;28;20816;-88
2021/05/20 00:32:37;;;;;;;0.80;0.77;;;;;;;10.42;78.25;96556.50;5039243;28;20444;-87
2021/05/20 00:35:03;;;;;;;2.07;1.03;;;;;;;10.31;78.51;96544.03;5038005;28;20466;-87
2021/05/20 00:37:30;;;;;;;2.40;1.17;;;;;;;10.33;78.67;96549.66;5038773;28;20489;-87
2021/05/20 00:39:56;;;;;;;2.60;1.23;;;;;;;10.31;78.93;96552.13;5037526;28;20574;-87
2021/05/20 00:42:22;;;;;;;2.20;1.50;;;;;;;10.34;78.50;96553.06;5038129;28;20447;-86
2021/05/20 00:44:53;;;;;;;1.63;1.30;;;;;;;10.31;78.91;96546.75;5038986;28;20529;-87
2021/05/20 00:47:20;;;;;;;3.50;1.03;;;;;;;10.20;79.04;96558.56;5037934;28;20442;-87
2021/05/20 00:49:47;;;;;;;1.73;0.90;;;;;;;10.15;79.75;96556.00;5038249;28;20486;-87
2021/05/20 00:52:13;;;;;;;1.20;0.70;;;;;;;10.12;79.26;96557.78;5038389;28;20500;-87
2021/05/20 00:54:39;;;;;;;2.43;1.53;;;;;;;10.12;79.70;96552.38;5038524;28;20448;-87
2021/05/20 00:57:07;;;;;;;1.50;1.20;;;;;;;10.04;79.83;96557.03;5038674;28;20422;-87
2021/05/20 00:59:33;;;;;;;1.23;0.80;;;;;;;10.02;80.15;96550.72;5038516;28;20486;-88
2021/05/20 01:02:00;;;;;;;1.50;1.20;;;;;;;9.97;80.59;96546.91;5038512;28;20426;-88
2021/05/20 01:04:26;;;;;;;4.93;1.10;;;;;;;9.94;80.51;96552.66;5037708;28;20425;-88
2021/05/20 01:06:53;;;;;;;1.40;1.30;;;;;;;9.88;81.26;96555.50;5039440;28;20448;-88
2021/05/20 01:09:19;;;;;;;1.77;0.97;;;;;;;9.89;81.94;96553.53;5038082;28;20542;-88
2021/05/20 01:11:46;;;;;;;3.17;1.33;;;;;;;9.89;81.73;96554.25;5039385;28;20505;-88
2021/05/20 01:14:12;;;;;;;4.00;1.10;;;;;;;10.02;81.57;96559.50;5038140;28;20441;-88
2021/05/20 01:16:38;;;;;;;4.60;1.40;;;;;;;9.96;81.69;96558.94;5038069;28;20486;-88
2021/05/20 01:19:04;;;;;;;3.00;1.43;;;;;;;9.92;81.87;96552.47;5039197;28;20438;-88
2021/05/20 01:21:33;;;;;;;4.23;1.80;;;;;;;9.99;82.35;96557.19;5037169;28;20791;-88
2021/05/20 01:23:59;;;;;;;2.47;1.40;;;;;;;9.99;82.65;96552.50;5037877;28;20451;-88
2021/05/20 01:26:26;;;;;;;1.10;0.90;;;;;;;10.06;82.59;96554.50;5038219;28;20448;-87
2021/05/20 01:28:52;;;;;;;2.27;1.23;;;;;;;10.05;82.80;96555.78;5038038;28;20990;-87
2021/05/20 01:31:19;;;;;;;1.80;0.93;;;;;;;9.94;83.34;96552.66;5037158;28;20969;-87
2021/05/20 01:33:45;;;;;;;1.17;0.80;;;;;;;9.94;83.73;96553.38;5037407;28;20497;-87
2021/05/20 01:36:11;;;;;;;3.47;1.00;;;;;;;9.88;83.73;96555.50;5037286;28;20951;-88
2021/05/20 01:41:13;;;;;;;1.67;1.00;;;;;;;9.90;83.68;96546.88;5036147;28;20485;-87
2021/05/20 01:43:40;;;;;;;2.47;0.90;;;;;;;9.91;83.00;96559.81;5036906;28;20457;-86
2021/05/20 01:46:07;;;;;;;3.43;1.10;;;;;;;9.82;83.14;96548.81;5036334;28;20512;-87
2021/05/20 01:48:37;;;;;;;1.80;1.00;;;;;;;9.84;84.07;96554.38;5036906;28;20525;-87
2021/05/20 01:51:05;;;;;;;1.73;1.10;;;;;;;9.96;82.85;96556.25;5037697;28;20447;-87
2021/05/20 01:53:31;;;;;;;1.53;1.10;;;;;;;9.88;83.11;96560.88;5037698;28;21085;-86
2021/05/20 01:55:58;;;;;;;2.23;1.40;;;;;;;9.81;83.02;96566.22;5037280;28;20443;-87
2021/05/20 01:58:24;;;;;;;3.83;1.47;;;;;;;9.75;83.50;96566.38;5037291;28;20810;-87
2021/05/20 02:00:50;;;;;;;1.97;1.50;;;;;;;9.71;83.85;96570.66;5037141;28;20458;-86
2021/05/20 02:03:17;;;;;;;1.10;0.93;;;;;;;9.73;84.10;96574.25;5036936;28;20536;-87
2021/05/20 02:05:43;;;;;;;3.80;1.80;;;;;;;9.60;84.13;96580.47;5037322;28;20514;-87
2021/05/20 02:08:09;;;;;;;2.20;1.20;;;;;;;9.53;85.23;96581.13;5041522;28;20534;-87
2021/05/20 02:10:35;;;;;;;2.83;1.20;;;;;;;9.52;84.85;96578.97;5036336;28;20455;-87
2021/05/20 02:13:02;;;;;;;2.00;1.07;;;;;;;9.43;85.23;96572.06;5036762;28;20469;-87
2021/05/20 02:15:28;;;;;;;1.67;1.27;;;;;;;9.42;85.45;96578.72;5037720;28;20483;-88
2021/05/20 02:17:54;;;;;;;2.00;1.00;;;;;;;9.39;85.73;96587.13;5037917;28;20565;-88
2021/05/20 02:20:21;;;;;;;2.43;1.17;;;;;;;9.30;85.72;96588.31;5051431;28;20533;-88
2021/05/20 02:22:48;;;;;;;1.60;1.23;;;;;;;9.26;86.59;96587.19;5057531;28;20390;-87
2021/05/20 02:25:14;;;;;;;1.77;1.27;;;;;;;9.29;86.06;96586.13;5058176;28;20435;-89
2021/05/20 02:27:41;;;;;;;2.13;1.37;;;;;;;9.27;86.27;96592.03;5047410;28;20402;-87
2021/05/20 02:30:09;;;;;;;1.37;1.00;;;;;;;9.21;86.53;96591.44;5037524;28;20559;-88
2021/05/20 02:32:35;;;;;;;1.80;1.10;;;;;;;9.22;86.37;96594.84;5037614;28;20454;-88
2021/05/20 02:35:01;;;;;;;1.33;1.00;;;;;;;9.22;86.20;96590.19;5036539;28;20459;-87
2021/05/20 02:37:27;;;;;;;3.87;1.10;;;;;;;9.17;86.48;96587.63;5036872;28;20971;-88
2021/05/20 02:39:54;;;;;;;1.93;1.30;;;;;;;9.11;86.38;96590.47;5037281;28;20629;-87
2021/05/20 02:42:20;;;;;;;3.80;1.07;;;;;;;9.19;85.84;96585.13;5037275;28;20441;-87
2021/05/20 02:44:46;;;;;;;2.03;1.40;;;;;;;9.12;86.30;96583.81;5040048;28;20421;-88
2021/05/20 02:47:13;;;;;;;1.30;1.00;;;;;;;9.17;86.19;96587.63;5056087;28;20494;-87
2021/05/20 02:49:39;;;;;;;2.70;1.47;;;;;;;9.17;86.65;96587.63;5057749;28;20426;-89
2021/05/20 02:52:05;;;;;;;1.53;1.27;;;;;;;9.03;86.79;96584.25;5056975;28;20421;-88
2021/05/20 02:54:31;;;;;;;5.07;0.97;;;;;;;9.11;86.21;96580.38;5040603;28;20420;-87
2021/05/20 02:56:58;;;;;;;2.00;1.07;;;;;;;8.95;87.12;96584.19;5050096;28;20514;-87
2021/05/20 02:59:24;;;;;;;1.27;1.10;;;;;;;8.96;87.51;96579.53;5038772;28;20455;-87
2021/05/20 03:01:50;;;;;;;3.20;1.10;;;;;;;8.96;87.04;96577.56;5042062;28;20478;-88
2021/05/20 03:04:17;;;;;;;5.33;1.47;;;;;;;9.01;86.98;96581.38;5042731;28;20431;-88
2021/05/20 03:06:43;;;;;;;1.03;0.93;;;;;;;9.01;86.91;96582.09;5043656;28;20505;-88
2021/05/20 03:09:11;;;;;;;1.73;1.63;;;;;;;8.96;87.25;96591.00;5061916;28;20509;-89
2021/05/20 03:11:37;;;;;;;1.43;1.20;;;;;;;8.90;87.34;96582.34;5046044;28;20481;-87
2021/05/20 03:14:04;;;;;;;2.33;1.33;;;;;;;8.98;87.11;96582.44;5040911;28;20455;-88
2021/05/20 03:16:30;;;;;;;1.13;0.80;;;;;;;9.05;86.88;96582.50;5039704;28;20414;-88
2021/05/20 03:18:56;;;;;;;2.00;1.60;;;;;;;9.02;86.85;96582.84;5040009;28;21047;-88
2021/05/20 03:21:26;;;;;;;1.67;1.07;;;;;;;9.13;86.53;96582.56;5041505;28;20625;-87
2021/05/20 03:23:53;;;;;;;2.90;1.37;;;;;;;9.14;85.88;96579.38;5041079;28;20450;-87
2021/05/20 03:26:19;;;;;;;1.70;1.03;;;;;;;9.09;86.55;96588.28;5041311;28;20862;-86
2021/05/20 03:28:45;;;;;;;1.10;1.00;;;;;;;9.08;86.41;96589.50;5041024;28;20451;-87
2021/05/20 03:31:11;;;;;;;4.73;1.30;;;;;;;9.08;86.26;96591.50;5041051;28;20477;-87
2021/05/20 03:33:40;;;;;;;7.30;1.10;;;;;;;8.98;86.45;96587.81;5039713;28;20457;-87
2021/05/20 03:36:07;;;;;;;6.43;1.03;;;;;;;9.03;86.98;96584.25;5040245;28;20826;-86
2021/05/20 03:38:34;;;;;;;1.10;1.00;;;;;;;9.00;87.50;96585.31;5040330;28;20513;-87
2021/05/20 03:41:00;;;;;;;2.10;1.43;;;;;;;9.01;87.25;96590.19;5041162;28;20556;-87
2021/05/20 03:43:27;;;;;;;1.50;0.97;;;;;;;8.96;88.67;96595.66;5041340;28;20414;-87
2021/05/20 03:45:53;;;;;;;5.20;1.30;;;;;;;8.97;89.33;96591.75;5040315;28;20473;-87
2021/05/20 03:48:19;;;;;;;2.60;1.40;;;;;;;9.17;90.23;96595.72;5040153;28;20416;-87
2021/05/20 03:50:45;;;;;;;2.57;1.33;;;;;;;9.27;90.89;96597.41;5040893;28;20530;-88
2021/05/20 03:53:11;;;;;;;1.47;1.10;;;;;;;9.21;91.82;96596.81;5040878;28;20496;-87
2021/05/20 03:55:38;;;;;;;1.77;1.30;;;;;;;9.15;92.23;96601.59;5040847;28;20424;-88
2021/05/20 03:58:04;;;;;;;2.00;1.10;;;;;;;9.17;92.38;96601.09;5040300;28;20464;-88
2021/05/20 04:00:30;;;;;;;1.73;1.33;;;;;;;9.20;92.81;96600.03;5040257;28;20457;-88
2021/05/20 04:02:56;;;;;;;2.30;1.50;;;;;;;9.13;93.49;96594.06;5039949;28;20533;-88
2021/05/20 04:05:22;;;;;;;3.60;1.57;;;;;;;9.14;93.83;96603.59;5040703;28;21003;-88
2021/05/20 04:07:48;;;;;;;1.20;1.10;;;;;;;9.22;93.48;96605.63;5040845;28;21015;-87
2021/05/20 04:10:15;;;;;;;1.50;1.30;;;;;;;9.26;93.48;96606.75;5041020;28;20463;-88
2021/05/20 04:12:42;;;;;;;3.40;1.33;;;;;;;9.36;93.21;96615.81;5040139;28;20452;-87
2021/05/20 04:15:09;;;;;;;0.80;0.80;;;;;;;9.40;93.32;96616.19;5041954;28;20561;-88
2021/05/20 04:17:35;;;;;;;1.97;0.93;;;;;;;9.42;92.96;96605.63;5042004;28;20452;-87
2021/05/20 04:20:01;;;;;;;1.83;1.10;;;;;;;9.39;92.23;96609.38;5041100;28;21034;-87
2021/05/20 04:22:28;;;;;;;3.57;1.13;;;;;;;9.45;92.15;96615.34;5041693;28;20439;-87
2021/05/20 04:24:54;;;;;;;1.77;1.17;;;;;;;9.49;91.60;96613.03;5039651;28;20453;-86
2021/05/20 04:27:20;;;;;;;1.93;1.10;;;;;;;9.50;91.67;96616.47;5039798;28;20839;-89
2021/05/20 04:29:47;;;;;;;2.40;1.70;;;;;;;9.41;91.40;96612.25;5039678;28;20442;-88
2021/05/20 04:32:13;;;;;;;3.80;1.00;;;;;;;9.39;91.47;96617.47;5040027;28;20455;-87
2021/05/20 04:34:39;;;;;;;2.63;0.83;;;;;;;9.69;91.06;96617.72;5039759;28;20429;-87
2021/05/20 04:37:08;;;;;;;2.13;1.20;;;;;;;9.99;89.86;96617.19;5038759;28;20447;-87
2021/05/20 04:39:34;;;;;;;1.90;1.40;;;;;;;10.11;88.84;96612.25;5038506;28;20487;-87
2021/05/20 04:42:00;;;;;;;0.90;0.80;;;;;;;10.16;88.14;96608.69;5038898;28;20433;-88
2021/05/20 04:44:27;;;;;;;2.67;1.20;;;;;;;10.30;87.60;96604.66;5040168;28;20454;-89
2021/05/20 04:46:54;;;;;;;2.40;1.17;;;;;;;10.35;86.87;96611.84;5040056;28;20431;-89
2021/05/20 04:49:20;;;;;;;2.37;0.80;;;;;;;10.44;87.07;96614.06;5040278;28;20433;-90
2021/05/20 04:51:46;;;;;;;1.13;0.73;;;;;;;11.21;84.88;96615.78;5043061;28;20443;-89
2021/05/20 04:54:12;;;;;;;1.57;0.60;;;;;;;12.35;80.57;96632.69;5039564;28;20421;-89
2021/05/20 04:56:39;;;;;;;1.23;0.70;;;;;;;13.48;75.15;96628.78;5039530;28;20497;-89
2021/05/20 04:59:05;;;;;;;0.90;0.73;;;;;;;14.35;71.30;96638.53;5038853;28;20525;-90
2021/05/20 05:01:32;;;;;;;1.30;1.13;;;;;;;14.82;68.53;96643.63;5039059;28;20487;-88
2021/05/20 05:03:59;;;;;;;2.23;0.83;;;;;;;14.78;66.98;96648.06;5040409;28;20454;-89
2021/05/20 05:06:26;;;;;;;1.97;0.93;;;;;;;14.53;67.72;96650.16;5039301;28;20447;-89
2021/05/20 05:08:52;;;;;;;2.93;1.27;;;;;;;14.13;69.25;96647.59;5056051;28;20430;-87
2021/05/20 05:11:19;;;;;;;2.00;1.07;;;;;;;13.98;69.78;96653.16;5058620;28;20459;-86
2021/05/20 05:13:45;;;;;;;1.70;0.90;;;;;;;13.44;71.42;96650.13;5059365;28;20427;-88
2021/05/20 05:16:11;;;;;;;2.37;0.83;;;;;;;13.46;71.53;96653.00;5055074;28;20546;-89
2021/05/20 05:18:38;;;;;;;1.63;0.90;;;;;;;13.35;72.14;96664.25;5042629;28;20542;-89
2021/05/20 05:21:05;;;;;;;1.37;1.00;;;;;;;13.31;72.37;96672.06;5042669;28;20471;-90
2021/05/20 05:23:32;;;;;;;3.03;0.80;;;;;;;13.83;71.40;96667.56;5040844;28;20510;-89
2021/05/20 05:25:58;;;;;;;2.30;1.03;;;;;;;14.21;69.04;96672.69;5040790;28;20473;-88
2021/05/20 05:28:24;;;;;;;3.53;0.80;;;;;;;13.96;69.14;96672.72;5039465;28;20470;-87
2021/05/20 05:30:50;;;;;;;2.50;0.97;;;;;;;13.60;70.11;96678.56;5040495;28;20475;-89
2021/05/20 05:33:18;;;;;;;2.63;1.00;;;;;;;13.41;70.68;96681.75;5040133;28;20416;-89
2021/05/20 05:35:44;;;;;;;1.10;1.00;;;;;;;13.04;71.92;96684.63;5039562;28;20455;-89
2021/05/20 05:38:11;;;;;;;1.40;0.90;;;;;;;12.59;73.65;96680.81;5041019;28;20866;-89
2021/05/20 05:40:37;;;;;;;3.57;0.97;;;;;;;12.42;74.80;96688.06;5039332;28;20901;-89
2021/05/20 05:43:06;;;;;;;1.70;1.10;;;;;;;12.27;75.77;96691.53;5039821;28;20500;-89
2021/05/20 05:45:32;;;;;;;2.10;1.00;;;;;;;12.41;75.35;96689.31;5040497;28;20434;-88
2021/05/20 05:47:59;;;;;;;1.53;0.77;;;;;;;12.60;75.18;96695.06;5041474;28;20406;-89
2021/05/20 05:50:26;;;;;;;1.63;1.30;;;;;;;12.62;74.77;96701.41;5046003;28;20466;-89
2021/05/20 05:52:52;;;;;;;2.27;0.90;;;;;;;12.57;75.10;96706.97;5039714;28;20406;-90
2021/05/20 05:55:19;;;;;;;3.23;1.57;;;;;;;12.59;74.91;96702.47;5039527;28;20410;-90
2021/05/20 05:57:45;;;;;;;2.93;1.30;;;;;;;12.62;74.57;96714.19;5040713;28;20455;-90
2021/05/20 06:00:13;;;;;;;5.90;1.27;;;;;;;12.36;75.67;96709.91;5039818;28;20469;-90
2021/05/20 06:02:39;;;;;;;3.43;1.07;;;;;;;12.33;76.03;96705.59;5040021;28;20425;-90
2021/05/20 06:05:07;;;;;;;3.80;1.00;;;;;;;12.32;76.33;96712.25;5040668;28;20439;-90
2021/05/20 06:07:35;;;;;;;6.10;1.30;;;;;;;12.45;76.26;96706.66;5040953;28;20432;-89
2021/05/20 06:10:02;;;;;;;4.03;1.10;;;;;;;12.60;76.18;96711.31;5040179;28;21059;-90
2021/05/20 06:12:29;;;;;;;4.83;1.07;;;;;;;12.71;75.70;96714.38;5040779;28;20447;-90
2021/05/20 06:14:55;;;;;;;3.27;1.43;;;;;;;12.94;74.98;96724.41;5040099;28;20414;-90
2021/05/20 06:17:21;;;;;;;2.13;0.93;;;;;;;12.83;75.13;96718.13;5039933;28;20434;-88
2021/05/20 06:19:47;;;;;;;2.40;1.00;;;;;;;12.76;75.75;96712.72;5037715;28;20521;-89
2021/05/20 06:22:13;;;;;;;7.00;2.00;;;;;;;12.70;76.23;96717.59;5039053;28;20534;-89
2021/05/20 06:24:39;;;;;;;1.70;1.47;;;;;;;12.52;76.81;96714.03;5048345;28;20430;-90
2021/05/20 06:27:05;;;;;;;2.07;1.40;;;;;;;12.42;76.53;96710.44;5041788;28;20428;-90
2021/05/20 06:29:32;;;;;;;1.70;0.87;;;;;;;12.25;76.40;96719.09;5039612;28;20906;-89
2021/05/20 06:31:59;;;;;;;5.07;1.20;;;;;;;12.02;78.08;96713.00;5038639;28;20471;-90
2021/05/20 06:34:25;;;;;;;1.93;1.30;;;;;;;11.94;78.14;96719.66;5047213;28;20439;-90
2021/05/20 06:36:52;;;;;;;1.63;1.00;;;;;;;11.80;78.11;96719.09;5053213;28;20427;-90
2021/05/20 06:39:18;;;;;;;2.40;1.30;;;;;;;11.78;79.13;96724.31;5039187;28;20451;-90
2021/05/20 06:41:44;;;;;;;1.50;1.20;;;;;;;11.73;79.31;96717.84;5043115;28;20492;-91
2021/05/20 06:44:10;;;;;;;3.00;1.27;;;;;;;11.80;79.13;96719.09;5057196;28;20471;-91
2021/05/20 06:46:37;;;;;;;1.50;1.40;;;;;;;11.95;78.11;96723.81;5044116;28;20455;-91
2021/05/20 06:49:04;;;;;;;5.00;1.63;;;;;;;12.10;77.67;96724.53;5041697;28;20591;-90
2021/05/20 06:51:33;;;;;;;1.40;1.20;;;;;;;12.24;76.90;96730.50;5048061;28;20417;-90
2021/05/20 06:53:59;;;;;;;2.10;1.30;;;;;;;12.28;76.06;96733.53;5046340;28;20425;-90
2021/05/20 06:56:28;;;;;;;2.47;1.50;;;;;;;12.33;76.55;96738.78;5042921;28;20474;-90
2021/05/20 07:01:46;;;;;;;3.63;1.60;;;;;;;13.73;71.81;96737.97;5052187;28;20470;-89
2021/05/20 07:04:12;;;;;;;1.90;1.30;;;;;;;13.85;70.15;96741.69;5056290;28;20440;-89
2021/05/20 07:06:39;;;;;;;1.17;0.90;;;;;;;14.64;67.40;96737.28;5052143;28;20452;-89
2021/05/20 07:09:08;;;;;;;3.27;0.83;;;;;;;14.90;64.30;96735.94;5047160;28;20471;-90
2021/05/20 07:11:34;;;;;;;1.80;0.93;;;;;;;14.68;65.35;96737.63;5042338;28;20442;-92
2021/05/20 07:14:01;;;;;;;2.37;1.00;;;;;;;14.51;65.84;96747.72;5043320;28;20451;-90
2021/05/20 07:16:30;;;;;;;3.00;1.40;;;;;;;14.33;67.24;96738.84;5043404;28;20459;-91
2021/05/20 07:22:24;;;;;;;1.73;1.13;;;;;;;14.12;66.00;96738.44;5044046;28;20427;-89
2021/05/20 07:24:52;;;;;;;3.80;0.90;;;;;;;14.11;65.38;96728.84;5042463;28;20455;-91
2021/05/20 07:27:18;;;;;;;1.10;0.93;;;;;;;14.32;65.27;96738.09;5040721;28;20470;-91
2021/05/20 07:29:44;;;;;;;1.47;1.17;;;;;;;14.36;65.52;96743.88;5041021;28;20487;-89
2021/05/20 07:32:17;;;;;;;1.60;1.33;;;;;;;14.47;65.36;96740.69;5040618;28;20447;-91
2021/05/20 07:34:44;;;;;;;1.77;1.30;;;;;;;14.24;66.87;96742.88;5040613;28;20398;-90
2021/05/20 07:37:11;;;;;;;3.10;1.50;;;;;;;14.28;67.11;96745.91;5039382;28;20432;-90
2021/05/20 07:39:37;;;;;;;1.10;1.00;;;;;;;14.04;67.28;96741.19;5040997;28;20490;-90
2021/05/20 07:42:05;;;;;;;1.20;1.00;;;;;;;13.83;69.46;96746.22;5039636;28;20418;-89
2021/05/20 07:44:33;;;;;;;2.00;1.40;;;;;;;13.83;71.46;96746.97;5051913;28;20450;-89
2021/05/20 07:47:01;;;;;;;1.20;0.90;;;;;;;13.74;71.93;96744.84;5057041;28;20426;-89
2021/05/20 07:49:27;;;;;;;1.37;1.17;;;;;;;13.88;71.47;96742.56;5057267;28;20460;-90
2021/05/20 07:51:55;;;;;;;2.07;1.23;;;;;;;14.14;70.25;96744.03;5048988;28;20451;-93
2021/05/20 07:54:21;;;;;;;1.67;1.33;;;;;;;14.22;69.37;96753.53;5047041;28;20525;-90
2021/05/20 07:56:47;;;;;;;1.53;1.43;;;;;;;14.28;69.89;96740.47;5044607;28;20527;-92
2021/05/20 07:59:14;;;;;;;2.00;1.27;;;;;;;14.49;69.23;96753.72;5059171;28;20450;-92
2021/05/20 08:01:48;;;;;;;1.07;0.97;;;;;;;14.38;68.43;96749.47;5059242;28;20470;-92
2021/05/20 08:04:16;;;;;;;1.30;1.20;;;;;;;14.40;67.89;96746.94;5059397;28;20466;-91
2021/05/20 08:06:48;;;;;;;2.70;1.23;;;;;;;14.44;65.53;96741.81;5054139;28;20451;-91
2021/05/20 08:09:21;;;;;;;1.70;1.17;;;;;;;14.61;65.40;96749.28;5045582;28;20485;-90
2021/05/20 08:11:47;;;;;;;1.73;0.90;;;;;;;14.63;65.36;96748.72;5042509;28;20527;-91
2021/05/20 08:14:13;;;;;;;1.70;1.07;;;;;;;14.81;64.85;96750.91;5043429;28;20522;-89
2021/05/20 08:16:41;;;;;;;1.47;1.20;;;;;;;14.97;62.80;96748.75;5027559;28;20447;-89
2021/05/20 08:19:10;;;;;;;1.67;1.00;;;;;;;14.80;62.05;96746.72;5024220;28;20526;-89
2021/05/20 08:21:36;;;;;;;3.17;0.93;;;;;;;14.51;63.23;96745.75;5021309;28;21055;-89
2021/05/20 08:24:04;;;;;;;1.00;0.90;;;;;;;14.58;63.29;96752.38;5022558;28;20436;-89
2021/05/20 08:26:31;;;;;;;0.90;0.80;;;;;;;14.47;63.23;96750.84;5022647;28;20479;-90
2021/05/20 08:28:59;;;;;;;2.53;1.03;;;;;;;14.25;64.43;96749.03;5022564;28;20535;-90
2021/05/20 08:31:26;;;;;;;1.00;0.70;;;;;;;14.35;64.09;96739.72;5023308;28;20468;-89
2021/05/20 08:33:52;;;;;;;2.20;0.83;;;;;;;14.33;63.57;96744.28;5024662;28;20988;-88
2021/05/20 08:36:19;;;;;;;4.10;0.80;;;;;;;14.26;63.96;96740.31;5023637;28;20446;-90
2021/05/20 08:38:45;;;;;;;0.70;0.70;;;;;;;14.02;65.02;96740.31;5023486;28;20922;-90
2021/05/20 08:41:12;;;;;;;0.73;0.70;;;;;;;14.17;65.41;96740.19;5028979;28;20560;-91
2021/05/20 08:43:39;;;;;;;4.20;1.00;;;;;;;14.12;64.84;96733.00;5024340;28;20440;-91
2021/05/20 08:46:05;;;;;;;2.20;0.80;;;;;;;14.37;64.11;96742.63;5022690;28;20444;-90
2021/05/20 08:48:32;;;;;;;2.73;1.00;;;;;;;14.51;62.77;96742.28;5030118;28;20471;-90
2021/05/20 08:51:00;;;;;;;1.13;0.70;;;;;;;14.64;62.88;96739.28;5045366;28;20438;-92
2021/05/20 08:53:27;;;;;;;1.40;0.83;;;;;;;14.81;61.92;96739.31;5045111;28;20498;-90
2021/05/20 08:55:53;;;;;;;1.33;0.87;;;;;;;14.62;62.57;96733.69;5043562;28;20745;-90
2021/05/20 08:58:24;;;;;;;1.70;1.00;;;;;;;14.78;61.80;96741.16;5057022;28;20423;-93
2021/05/20 09:00:52;;;;;;;0.90;0.80;;;;;;;15.02;60.83;96732.19;5059025;28;20443;-91
2021/05/20 09:03:20;;;;;;;1.00;0.90;;;;;;;14.66;61.81;96734.03;5059318;28;20426;-92
2021/05/20 09:05:47;;;;;;;2.60;0.80;;;;;;;14.93;62.12;96741.00;5046043;28;20450;-91
2021/05/20 09:08:15;;;;;;;1.30;0.70;;;;;;;15.00;61.36;96739.47;5042867;28;20439;-91
2021/05/20 09:10:43;;;;;;;1.13;0.87;;;;;;;15.16;62.29;96740.00;5042044;28;20809;-91
2021/05/20 09:13:12;;;;;;;1.43;0.80;;;;;;;15.46;60.15;96743.06;5042543;28;20438;-89
2021/05/20 09:15:40;;;;;;;1.87;0.70;;;;;;;15.13;60.05;96746.56;5043389;28;20590;-91
2021/05/20 09:18:15;;;;;;;2.10;0.80;;;;;;;14.93;61.03;96743.69;5041037;28;20430;-91
2021/05/20 09:20:44;;;;;;;1.00;0.80;;;;;;;14.83;60.91;96739.47;5042063;28;20506;-90
2021/05/20 09:23:12;;;;;;;1.00;0.77;;;;;;;14.87;60.87;96745.22;5041561;28;20431;-89
2021/05/20 09:25:40;;;;;;;4.83;0.80;;;;;;;14.69;59.66;96747.19;5044132;28;20474;-92
2021/05/20 09:28:09;;;;;;;7.30;1.07;;;;;;;14.71;61.13;96752.81;5032543;28;20512;-92
2021/05/20 09:30:36;;;;;;;2.23;0.90;;;;;;;14.84;60.94;96744.34;5055686;28;20824;-92
2021/05/20 09:33:07;;;;;;;3.70;0.83;;;;;;;15.12;61.01;96756.72;5046740;28;20423;-93
2021/05/20 09:35:36;;;;;;;3.23;1.40;;;;;;;15.29;59.12;96753.25;5041007;28;20455;-92
2021/05/20 09:38:05;;;;;;;1.47;0.87;;;;;;;15.46;58.84;96756.69;5041701;28;20538;-92
2021/05/20 09:40:37;;;;;;;2.10;0.70;;;;;;;15.41;58.68;96751.50;5041137;28;20502;-91
2021/05/20 09:43:17;;;;;;;2.10;0.50;;;;;;;15.38;59.26;96752.63;5039042;28;20528;-91
2021/05/20 09:45:46;;;;;;;3.67;0.73;;;;;;;15.50;58.34;96751.59;5040800;28;20932;-91
2021/05/20 09:48:13;;;;;;;0.77;0.67;;;;;;;15.03;59.64;96741.75;5040925;28;20451;-91
2021/05/20 09:50:43;;;;;;;2.93;0.90;;;;;;;15.21;60.13;96749.91;5039625;28;20458;-91
2021/05/20 09:53:11;;;;;;;1.67;1.27;;;;;;;15.26;58.70;96746.22;5041847;28;20463;-90
2021/05/20 09:55:45;;;;;;;1.40;0.73;;;;;;;15.32;59.24;96741.97;5043872;28;20441;-90
2021/05/20 09:58:11;;;;;;;1.37;0.70;;;;;;;15.59;57.80;96746.75;5045656;28;20458;-90
2021/05/20 10:00:38;;;;;;;1.47;0.80;;;;;;;15.85;57.33;96749.47;5044435;28;20475;-90
2021/05/20 10:03:06;;;;;;;1.37;0.53;;;;;;;15.95;56.21;96742.06;5040984;28;21005;-90
2021/05/20 10:05:34;;;;;;;1.30;0.67;;;;;;;15.73;56.40;96745.09;5040555;28;20443;-90
2021/05/20 10:08:04;;;;;;;1.30;0.80;;;;;;;15.41;57.92;96743.34;5042614;28;20436;-90
2021/05/20 10:10:33;;;;;;;1.80;1.03;;;;;;;15.69;57.77;96752.97;5043202;28;20456;-89
2021/05/20 10:13:02;;;;;;;1.33;0.90;;;;;;;15.79;57.02;96746.28;5042936;28;20493;-91
2021/05/20 10:15:28;;;;;;;1.20;1.00;;;;;;;15.92;56.66;96756.81;5045899;28;20510;-91
2021/05/20 10:17:56;;;;;;;1.73;0.87;;;;;;;15.82;56.71;96745.16;5047010;28;20463;-93
2021/05/20 10:20:24;;;;;;;2.23;0.90;;;;;;;15.83;55.92;96745.88;5050445;28;20629;-92
2021/05/20 10:22:50;;;;;;;2.40;0.77;;;;;;;15.77;56.81;96735.25;5049402;28;20459;-90
2021/05/20 10:25:18;;;;;;;1.47;0.80;;;;;;;15.52;57.94;96731.97;5046733;28;20496;-91
2021/05/20 10:27:45;;;;;;;0.80;0.80;;;;;;;15.80;56.66;96727.94;5042798;28;20442;-90
2021/05/20 10:30:13;;;;;;;1.57;0.70;;;;;;;15.88;56.41;96729.28;5043312;28;20460;-91
2021/05/20 10:32:43;;;;;;;1.33;0.73;;;;;;;15.91;56.74;96728.13;5048051;28;20482;-90
2021/05/20 10:35:12;;;;;;;0.97;0.60;;;;;;;16.19;55.52;96728.84;5045271;28;20439;-91
2021/05/20 10:37:39;;;;;;;1.53;0.90;;;;;;;16.38;54.34;96724.13;5042014;28;20466;-91
2021/05/20 10:40:08;;;;;;;2.00;0.80;;;;;;;16.49;53.86;96725.59;5042710;28;20907;-91
2021/05/20 10:42:38;;;;;;;1.10;0.77;;;;;;;16.77;53.44;96724.94;5045138;28;20493;-91
2021/05/20 10:45:21;;;;;;;3.80;1.07;;;;;;;16.85;52.37;96722.78;5043409;28;20547;-91
2021/05/20 10:48:17;;;;;;;1.57;1.00;;;;;;;16.32;52.60;96728.44;5041508;28;20454;-91
2021/05/20 10:51:04;;;;;;;2.10;0.80;;;;;;;15.74;54.42;96725.50;5034977;28;20435;-91
2021/05/20 10:53:53;;;;;;;1.00;0.80;;;;;;;15.53;54.83;96717.81;5053591;28;20423;-91
2021/05/20 10:56:51;;;;;;;3.00;0.60;;;;;;;15.90;52.08;96717.84;5056831;28;20419;-89
2021/05/20 10:59:37;;;;;;;1.60;1.50;;;;;;;16.29;49.30;96713.25;5057281;28;20460;-91
2021/05/20 11:02:03;;;;;;;0.80;0.60;;;;;;;16.40;49.09;96710.69;5057214;28;20483;-90
2021/05/20 11:04:35;;;;;;;0.77;0.57;;;;;;;16.49;49.85;96712.69;5052550;28;20474;-90
2021/05/20 11:07:30;;;;;;;0.60;0.50;;;;;;;16.65;49.92;96713.19;5045932;28;20442;-91
2021/05/20 11:10:10;;;;;;;2.50;1.40;;;;;;;16.81;49.98;96710.88;5043017;28;20455;-91
2021/05/20 11:12:54;;;;;;;0.80;0.80;;;;;;;17.13;49.50;96705.00;5040380;28;20422;-91
2021/05/20 11:15:23;;;;;;;0.90;0.70;;;;;;;17.10;47.42;96698.66;5043071;28;20439;-91
2021/05/20 11:17:49;;;;;;;2.40;0.60;;;;;;;16.98;49.22;96706.00;5039903;28;20436;-91
2021/05/20 11:20:43;;;;;;;1.13;0.57;;;;;;;16.98;49.23;96699.81;5042704;28;20607;-91
2021/05/20 11:23:29;;;;;;;1.00;0.70;;;;;;;16.97;49.21;96692.97;5043503;28;20494;-92
2021/05/20 11:26:15;;;;;;;3.50;1.57;;;;;;;16.80;49.64;96682.91;5045490;28;20440;-91
2021/05/20 11:29:05;;;;;;;0.57;0.53;;;;;;;16.86;49.64;96688.06;5046764;28;20450;-91
2021/05/20 11:31:32;;;;;;;0.60;0.60;;;;;;;16.83;49.14;96684.50;5043795;28;20474;-91
2021/05/20 11:40:33;;;;;;;2.67;0.60;;;;;;;16.41;47.27;96686.88;4938735;28;20493;-95
2021/05/20 11:43:02;;;;;;;1.00;0.90;;;;;;;16.15;51.00;96672.06;5033836;28;20448;-95
2021/05/20 11:45:34;;;;;;;1.43;0.70;;;;;;;16.06;51.49;96681.66;5024409;28;20479;-93
2021/05/20 11:48:09;;;;;;;1.40;0.80;;;;;;;16.00;51.89;96681.22;5037747;28;20922;-92
2021/05/20 11:50:36;;;;;;;1.27;0.70;;;;;;;16.12;51.54;96683.38;5046608;28;20446;-92
2021/05/20 11:53:15;;;;;;;1.33;0.73;;;;;;;16.12;51.01;96675.22;5050062;28;20579;-90
2021/05/20 11:55:45;;;;;;;0.83;0.57;;;;;;;16.15;50.96;96665.91;5048241;28;20454;-92